Time;durP1;ratioP1;P1;durP2;ratioP2;P2;SDS_P1;SDS_P2;PMS_P1;PMS_P2;Temp;Humidity;BMP_temperature;BMP_pressure;BME280_temperature;BME280_humidity;BME280_pressure;Samples;Min_cycle;Max_cycle;Signal;HPM_P1;HPM_P2
2023/01/08 00:01:42;;;;;;;135.30;59.47;;;;;;;3.18;80.31;95343.16;5011938;28;20196;-78
2023/01/08 00:04:08;;;;;;;104.50;49.03;;;;;;;3.15;80.52;95340.88;5009832;28;20557;-78
2023/01/08 00:06:34;;;;;;;94.40;43.17;;;;;;;2.86;81.40;95304.75;5005625;28;20234;-78
2023/01/08 00:09:00;;;;;;;95.63;45.67;;;;;;;3.19;81.00;95354.38;5008860;28;20200;-78
2023/01/08 00:11:26;;;;;;;95.50;40.07;;;;;;;3.17;80.70;95354.53;5008539;28;20185;-78
2023/01/08 00:13:51;;;;;;;88.17;38.87;;;;;;;3.02;80.30;95345.66;5003890;28;20180;-78
2023/01/08 00:16:18;;;;;;;87.53;40.77;;;;;;;2.97;80.58;95334.88;5006186;28;20184;-78
2023/01/08 00:18:45;;;;;;;90.87;42.60;;;;;;;3.10;80.13;95353.53;5005810;28;20663;-77
2023/01/08 00:21:11;;;;;;;91.60;42.63;;;;;;;3.10;80.42;95347.50;4999739;28;20184;-77
2023/01/08 00:23:37;;;;;;;85.57;42.67;;;;;;;2.93;80.12;95328.38;5009016;28;20192;-77
2023/01/08 00:26:05;;;;;;;93.90;41.57;;;;;;;3.04;80.18;95354.94;5008465;28;20235;-77
2023/01/08 00:28:30;;;;;;;95.03;43.27;;;;;;;3.03;79.66;95347.28;5003373;28;20202;-77
2023/01/08 00:30:56;;;;;;;99.63;44.73;;;;;;;3.06;79.58;95353.97;5014026;28;20188;-77
2023/01/08 00:33:21;;;;;;;88.27;41.87;;;;;;;2.90;79.98;95329.50;5006835;28;20180;-77
2023/01/08 00:35:47;;;;;;;99.53;45.47;;;;;;;2.85;80.65;95325.72;5003478;28;20188;-77
2023/01/08 00:38:12;;;;;;;90.87;42.67;;;;;;;2.92;80.46;95340.56;5002957;28;20169;-77
2023/01/08 00:40:39;;;;;;;97.20;41.33;;;;;;;2.91;80.38;95346.72;5006592;28;20189;-78
2023/01/08 00:43:05;;;;;;;90.23;42.87;;;;;;;2.86;80.52;95355.94;5008854;28;20187;-78
2023/01/08 00:45:30;;;;;;;95.70;42.43;;;;;;;2.87;80.72;95354.97;5016131;28;20183;-78
2023/01/08 00:47:58;;;;;;;97.23;43.50;;;;;;;2.68;80.49;95329.16;5021799;28;20207;-78
2023/01/08 00:50:23;;;;;;;99.03;44.40;;;;;;;2.82;80.21;95354.63;5020415;28;20191;-80
2023/01/08 00:52:49;;;;;;;95.97;43.50;;;;;;;2.82;79.67;95346.81;5013357;28;20254;-78
2023/01/08 00:55:14;;;;;;;105.87;46.20;;;;;;;2.79;80.54;95347.91;5009373;28;20683;-78
2023/01/08 00:57:40;;;;;;;113.00;47.30;;;;;;;2.54;80.19;95320.94;5011666;28;20191;-79
2023/01/08 01:00:07;;;;;;;107.17;46.83;;;;;;;2.74;80.44;95349.34;5021063;28;20315;-78
2023/01/08 01:02:37;;;;;;;124.70;51.57;;;;;;;2.71;81.28;95352.25;5019169;28;20184;-79
2023/01/08 01:05:04;;;;;;;121.07;49.47;;;;;;;2.65;81.70;95351.06;5025180;28;20540;-79
2023/01/08 01:07:30;;;;;;;131.27;51.40;;;;;;;2.57;82.10;95338.81;5029048;28;20275;-79
2023/01/08 01:09:56;;;;;;;121.97;53.97;;;;;;;2.57;81.50;95338.81;5016098;28;20180;-78
2023/01/08 01:12:21;;;;;;;114.37;52.43;;;;;;;2.24;81.36;95290.16;5019057;28;20199;-79
2023/01/08 01:14:47;;;;;;;129.47;58.63;;;;;;;2.58;81.16;95343.06;5022491;28;20180;-79
2023/01/08 01:17:12;;;;;;;151.13;66.67;;;;;;;2.61;81.20;95344.53;5023936;28;20196;-79
2023/01/08 01:19:38;;;;;;;143.40;62.60;;;;;;;2.33;80.97;95298.84;5015388;28;20187;-78
2023/01/08 01:22:04;;;;;;;151.33;66.50;;;;;;;2.21;81.16;95270.50;5024240;28;20200;-79
2023/01/08 01:24:29;;;;;;;143.77;64.97;;;;;;;2.67;81.00;95350.94;5019529;28;20168;-78
2023/01/08 01:26:58;;;;;;;160.10;68.60;;;;;;;2.64;80.61;95349.44;5018366;28;20672;-78
2023/01/08 01:29:23;;;;;;;150.20;67.37;;;;;;;2.49;81.07;95323.19;5027754;28;20192;-78
2023/01/08 01:31:49;;;;;;;153.80;66.17;;;;;;;2.46;80.98;95318.28;5019905;28;20179;-79
2023/01/08 01:34:15;;;;;;;148.93;60.93;;;;;;;2.28;81.51;95286.28;5027632;28;20648;-79
2023/01/08 01:36:40;;;;;;;136.13;59.63;;;;;;;2.24;81.06;95275.41;5022906;28;20171;-79
2023/01/08 01:39:06;;;;;;;118.80;56.20;;;;;;;2.62;81.76;95338.38;5025758;28;20211;-79
2023/01/08 01:41:41;;;;;;;126.37;58.37;;;;;;;2.64;80.73;95339.84;5030189;28;20176;-79
2023/01/08 01:44:39;;;;;;;120.40;54.80;;;;;;;2.61;80.76;95334.13;5026004;28;20314;-78
2023/01/08 01:47:38;;;;;;;106.13;48.93;;;;;;;2.59;80.89;95336.09;5018818;28;20164;-78
2023/01/08 01:50:11;;;;;;;99.30;44.67;;;;;;;2.54;81.04;95327.91;5019429;28;20675;-78
2023/01/08 01:52:44;;;;;;;110.83;45.27;;;;;;;2.54;81.58;95328.72;5023429;28;20230;-80
2023/01/08 01:55:12;;;;;;;107.10;46.10;;;;;;;2.51;81.21;95325.59;5016580;28;20259;-80
2023/01/08 01:57:38;;;;;;;106.23;47.73;;;;;;;2.52;80.87;95317.66;5020341;28;20624;-79
2023/01/08 02:00:07;;;;;;;114.03;50.10;;;;;;;2.31;79.52;95291.19;5021591;28;20686;-78
2023/01/08 02:02:33;;;;;;;104.63;47.33;;;;;;;2.19;79.99;95287.19;5025361;28;20190;-79
2023/01/08 02:05:00;;;;;;;98.50;47.10;;;;;;;2.00;81.15;95259.59;5034033;28;20288;-78
2023/01/08 02:07:44;;;;;;;106.37;46.23;;;;;;;1.96;81.35;95250.47;5019823;28;20251;-79
2023/01/08 02:10:34;;;;;;;103.80;46.70;;;;;;;2.40;81.10;95324.06;5024525;28;20214;-78
2023/01/08 02:13:22;;;;;;;100.30;46.13;;;;;;;2.11;80.58;95284.50;5006706;28;20653;-79
2023/01/08 02:16:12;;;;;;;102.47;46.63;;;;;;;2.13;80.23;95287.78;5018970;28;20207;-78
2023/01/08 02:18:41;;;;;;;94.40;44.93;;;;;;;2.30;79.79;95317.31;5024822;28;20686;-79
2023/01/08 02:21:10;;;;;;;90.73;42.73;;;;;;;2.24;80.33;95316.94;5025741;28;20702;-79
2023/01/08 02:23:38;;;;;;;92.33;40.60;;;;;;;2.23;80.04;95317.09;5033800;28;20195;-79
2023/01/08 02:26:11;;;;;;;80.50;37.07;;;;;;;2.18;79.91;95314.09;5024422;28;20194;-79
2023/01/08 02:28:46;;;;;;;73.10;32.80;;;;;;;2.19;80.41;95308.78;5004883;28;20204;-79
2023/01/08 02:31:12;;;;;;;69.97;30.97;;;;;;;1.79;79.99;95252.09;5014362;28;20208;-79
2023/01/08 02:33:38;;;;;;;63.63;31.87;;;;;;;1.98;81.10;95278.88;5031039;28;20724;-79
2023/01/08 02:36:24;;;;;;;73.47;35.03;;;;;;;2.13;81.08;95304.19;5014221;28;20238;-78
2023/01/08 02:39:13;;;;;;;72.10;29.43;;;;;;;2.10;81.22;95301.88;5013691;28;20183;-79
2023/01/08 02:41:44;;;;;;;62.87;28.53;;;;;;;2.07;81.15;95301.38;5006649;28;20199;-78
2023/01/08 02:44:16;;;;;;;72.67;31.90;;;;;;;1.93;81.04;95274.13;5013837;28;20184;-80
2023/01/08 02:46:42;;;;;;;62.17;29.03;;;;;;;1.94;82.13;95278.34;5030740;28;20561;-79
2023/01/08 02:49:12;;;;;;;69.80;30.80;;;;;;;1.96;81.21;95273.84;5021325;28;20192;-79
2023/01/08 02:51:41;;;;;;;65.23;30.83;;;;;;;1.93;80.64;95263.75;5022240;28;20652;-79
2023/01/08 02:54:12;;;;;;;62.57;28.87;;;;;;;1.94;80.43;95262.78;5021923;28;20244;-78
2023/01/08 02:56:43;;;;;;;54.20;28.97;;;;;;;2.08;80.57;95290.81;5016578;28;20257;-78
2023/01/08 02:59:11;;;;;;;64.27;29.10;;;;;;;1.85;80.75;95253.28;5028951;28;20187;-78
2023/01/08 03:01:39;;;;;;;69.33;31.47;;;;;;;2.03;80.69;95285.25;5024565;28;20220;-79
2023/01/08 03:04:16;;;;;;;75.43;32.13;;;;;;;2.10;80.54;95299.28;5021880;28;20570;-79
2023/01/08 03:06:42;;;;;;;56.70;29.13;;;;;;;1.84;80.25;95256.84;5022462;28;20206;-79
2023/01/08 03:09:08;;;;;;;63.43;31.73;;;;;;;1.87;80.89;95277.31;5016200;28;20204;-78
2023/01/08 03:11:42;;;;;;;69.80;30.33;;;;;;;1.66;81.53;95241.25;5011848;28;20272;-78
2023/01/08 03:14:14;;;;;;;69.07;28.93;;;;;;;2.03;80.94;95305.22;5026677;28;20191;-79
2023/01/08 03:16:54;;;;;;;70.23;29.37;;;;;;;2.04;81.02;95304.25;5032834;28;20180;-79
2023/01/08 03:19:34;;;;;;;69.43;29.70;;;;;;;2.03;80.71;95305.22;5008526;28;20180;-78
2023/01/08 03:22:02;;;;;;;61.37;29.83;;;;;;;1.69;80.77;95247.94;5032518;28;20179;-78
2023/01/08 03:24:32;;;;;;;60.53;29.80;;;;;;;1.97;80.45;95293.66;5023734;28;20662;-78
2023/01/08 03:27:02;;;;;;;64.53;29.07;;;;;;;1.95;80.12;95298.16;5031457;28;20179;-78
2023/01/08 03:29:28;;;;;;;56.00;28.30;;;;;;;1.73;79.81;95257.88;5017038;28;20695;-78
2023/01/08 03:32:02;;;;;;;59.23;27.47;;;;;;;1.97;80.36;95293.66;5022201;28;20194;-78
2023/01/08 03:34:29;;;;;;;48.57;24.77;;;;;;;1.68;79.15;95247.13;5019924;28;20203;-78
2023/01/08 03:36:59;;;;;;;53.00;24.60;;;;;;;1.82;79.29;95275.16;5012918;28;20176;-78
2023/01/08 03:39:27;;;;;;;68.47;26.60;;;;;;;1.70;79.95;95265.97;5021801;28;20168;-78
2023/01/08 03:41:58;;;;;;;57.50;25.27;;;;;;;1.78;80.35;95275.59;5024227;28;20279;-80
2023/01/08 03:44:23;;;;;;;56.17;28.13;;;;;;;1.75;80.40;95266.31;5013319;28;20601;-79
2023/01/08 03:46:53;;;;;;;58.63;25.87;;;;;;;1.97;80.04;95300.63;5020287;28;20179;-79
2023/01/08 03:49:21;;;;;;;60.53;27.30;;;;;;;1.77;79.72;95267.00;5006905;28;20579;-78
2023/01/08 03:51:47;;;;;;;58.33;28.83;;;;;;;1.60;79.88;95239.25;5015609;28;20192;-78
2023/01/08 03:54:15;;;;;;;57.67;28.23;;;;;;;1.91;80.14;95294.22;5025186;28;20203;-78
2023/01/08 03:56:41;;;;;;;52.20;27.70;;;;;;;1.80;80.24;95282.28;5020921;28;20182;-78
2023/01/08 03:59:07;;;;;;;63.53;31.30;;;;;;;1.81;80.60;95283.09;5020957;28;20192;-78
2023/01/08 04:01:32;;;;;;;64.20;31.07;;;;;;;1.45;80.32;95228.56;5025746;28;20216;-78
2023/01/08 04:03:57;;;;;;;56.03;28.80;;;;;;;1.77;80.19;95279.97;5031867;28;20179;-77
2023/01/08 04:06:23;;;;;;;56.97;27.03;;;;;;;1.88;79.95;95300.53;5022312;28;20184;-77
2023/01/08 04:08:49;;;;;;;51.67;26.53;;;;;;;1.69;79.92;95269.50;5023531;28;20207;-78
2023/01/08 04:11:15;;;;;;;62.00;30.90;;;;;;;1.68;79.87;95282.63;5026490;28;20200;-77
2023/01/08 04:13:41;;;;;;;59.63;28.07;;;;;;;1.46;81.12;95255.31;5019336;28;20191;-77
2023/01/08 04:16:07;;;;;;;64.00;30.53;;;;;;;1.74;81.07;95301.00;5022846;28;20176;-77
2023/01/08 04:18:33;;;;;;;66.77;31.03;;;;;;;1.12;80.73;95206.63;5028354;28;20195;-77
2023/01/08 04:20:58;;;;;;;63.63;30.40;;;;;;;1.71;80.67;95306.50;5017366;28;20205;-77
2023/01/08 04:23:25;;;;;;;65.77;29.53;;;;;;;1.72;80.92;95299.56;5015169;28;20211;-77
2023/01/08 04:25:50;;;;;;;69.07;31.13;;;;;;;1.68;80.05;95296.41;5011400;28;20184;-78
2023/01/08 04:28:16;;;;;;;69.27;32.33;;;;;;;1.48;80.62;95261.16;5011810;28;20216;-77
2023/01/08 04:30:41;;;;;;;69.00;33.10;;;;;;;1.40;80.32;95251.50;5026029;28;20624;-77
2023/01/08 04:33:07;;;;;;;69.17;32.73;;;;;;;1.66;80.60;95303.53;5026651;28;20199;-77
2023/01/08 04:35:32;;;;;;;67.97;32.43;;;;;;;1.61;80.29;95300.56;5031051;28;20579;-77
2023/01/08 04:37:57;;;;;;;64.37;32.23;;;;;;;1.67;80.73;95299.97;5030934;28;20233;-77
2023/01/08 04:40:23;;;;;;;66.70;33.83;;;;;;;1.58;79.05;95303.44;5022115;28;20180;-77
2023/01/08 04:42:48;;;;;;;68.27;33.50;;;;;;;1.47;79.33;95282.91;5014342;28;20176;-77
2023/01/08 04:45:13;;;;;;;66.53;32.07;;;;;;;1.25;79.33;95249.56;5021249;28;20183;-77
2023/01/08 04:47:39;;;;;;;69.63;31.77;;;;;;;1.56;80.18;95302.75;5030815;28;20223;-76
2023/01/08 04:50:05;;;;;;;75.33;33.33;;;;;;;1.46;80.80;95284.66;5030830;28;20183;-77
2023/01/08 04:52:30;;;;;;;60.07;31.77;;;;;;;1.49;80.40;95288.72;5023991;28;20253;-77
2023/01/08 04:54:56;;;;;;;87.13;42.58;;;;;;;1.52;80.82;95314.41;5014729;28;20422;-77
2023/01/08 04:57:21;;;;;;;85.43;38.00;;;;;;;1.51;80.94;95308.38;5027440;28;20171;-76
2023/01/08 04:59:47;;;;;;;79.10;37.77;;;;;;;1.32;80.30;95276.53;5028868;28;20330;-77
2023/01/08 05:02:12;;;;;;;86.37;38.97;;;;;;;1.19;79.85;95258.75;5013940;28;20203;-76
2023/01/08 05:04:38;;;;;;;92.53;43.87;;;;;;;1.42;79.66;95303.25;5014687;28;20223;-76
2023/01/08 05:07:03;;;;;;;81.73;38.90;;;;;;;1.31;80.15;95291.28;5021598;28;20218;-76
2023/01/08 05:09:29;;;;;;;93.77;39.20;;;;;;;1.37;79.48;95311.47;5014842;28;20294;-77
2023/01/08 05:11:57;;;;;;;81.17;37.67;;;;;;;1.41;79.73;95314.56;5021214;28;20191;-76
2023/01/08 05:14:23;;;;;;;75.57;35.50;;;;;;;1.45;79.94;95314.16;5014706;28;20663;-76
2023/01/08 05:16:48;;;;;;;75.67;37.23;;;;;;;1.43;80.56;95305.69;5022860;28;20191;-77
2023/01/08 05:19:14;;;;;;;83.90;39.97;;;;;;;1.54;81.03;95317.66;5021010;28;20226;-78
2023/01/08 05:21:43;;;;;;;100.23;41.97;;;;;;;1.43;81.63;95299.69;5021126;28;20196;-77
2023/01/08 05:24:08;;;;;;;90.90;40.00;;;;;;;1.56;81.29;95309.75;4997685;28;20259;-77
2023/01/08 05:26:34;;;;;;;77.30;39.67;;;;;;;1.24;80.72;95258.28;5012376;28;20259;-78
2023/01/08 05:29:00;;;;;;;85.87;36.43;;;;;;;1.49;81.08;95299.09;5030570;28;20207;-77
2023/01/08 05:31:25;;;;;;;74.93;33.70;;;;;;;1.49;82.08;95312.91;5033718;28;20187;-76
2023/01/08 05:33:51;;;;;;;90.07;38.73;;;;;;;1.50;81.32;95311.13;5011107;28;20252;-77
2023/01/08 05:36:17;;;;;;;88.93;37.00;;;;;;;1.43;81.13;95303.09;5019112;28;20175;-77
2023/01/08 05:38:42;;;;;;;97.37;42.80;;;;;;;1.48;82.01;95311.25;5032733;28;20568;-77
2023/01/08 05:41:08;;;;;;;120.10;45.50;;;;;;;1.34;80.33;95308.34;5025093;28;20233;-76
2023/01/08 05:43:34;;;;;;;102.07;42.60;;;;;;;1.33;79.20;95299.72;5024834;28;20184;-77
2023/01/08 05:46:01;;;;;;;107.10;44.77;;;;;;;1.04;79.48;95260.97;5033906;28;20191;-77
2023/01/08 05:48:28;;;;;;;101.37;44.83;;;;;;;1.43;79.58;95321.25;5019739;28;20200;-77
2023/01/08 05:50:53;;;;;;;106.43;46.67;;;;;;;1.23;80.01;95304.13;5013822;28;20190;-77
2023/01/08 05:53:19;;;;;;;94.83;45.53;;;;;;;1.35;80.64;95317.75;5016750;28;20180;-78
2023/01/08 05:55:44;;;;;;;107.97;47.70;;;;;;;1.26;80.50;95300.47;5013805;28;20192;-77
2023/01/08 05:58:10;;;;;;;100.27;48.30;;;;;;;1.34;79.90;95318.69;5021487;28;20175;-77
2023/01/08 06:00:37;;;;;;;98.67;47.10;;;;;;;1.30;80.63;95325.16;5023876;28;21063;-78
2023/01/08 06:03:02;;;;;;;98.23;44.73;;;;;;;1.20;80.55;95311.41;5021795;28;21024;-78
2023/01/08 06:05:30;;;;;;;85.20;42.43;;;;;;;1.19;80.96;95307.16;5026912;28;20254;-77
2023/01/08 06:07:57;;;;;;;90.30;42.20;;;;;;;1.11;81.14;95300.13;5013482;28;20295;-78
2023/01/08 06:10:22;;;;;;;78.03;38.43;;;;;;;1.28;81.06;95333.06;5022850;28;20196;-76
2023/01/08 06:12:48;;;;;;;82.07;37.87;;;;;;;1.28;81.17;95332.25;5013347;28;20234;-75
2023/01/08 06:15:13;;;;;;;79.73;37.63;;;;;;;1.34;81.40;95332.50;5027644;28;20188;-75
2023/01/08 06:17:39;;;;;;;79.93;38.23;;;;;;;1.37;81.44;95334.81;5032766;28;20206;-75
2023/01/08 06:20:05;;;;;;;76.07;36.87;;;;;;;1.39;81.21;95329.44;5032783;28;20219;-74
2023/01/08 06:22:30;;;;;;;68.40;33.37;;;;;;;1.43;81.21;95334.22;5032887;28;20172;-74
2023/01/08 06:24:55;;;;;;;77.23;38.87;;;;;;;1.46;79.87;95330.53;5032522;28;20214;-74
2023/01/08 06:27:21;;;;;;;86.67;38.23;;;;;;;1.46;80.43;95333.13;5032491;28;20611;-74
2023/01/08 06:29:46;;;;;;;103.60;39.93;;;;;;;1.44;80.72;95330.69;5026606;28;20173;-75
2023/01/08 06:32:11;;;;;;;86.47;38.43;;;;;;;1.47;80.40;95338.16;5027650;28;20180;-75
2023/01/08 06:34:37;;;;;;;84.70;39.63;;;;;;;1.47;80.45;95339.97;5033045;28;20233;-74
2023/01/08 06:37:02;;;;;;;91.23;39.67;;;;;;;1.45;79.87;95334.09;5032757;28;20650;-75
2023/01/08 06:39:28;;;;;;;94.00;37.70;;;;;;;1.31;79.65;95312.03;5024052;28;20188;-76
2023/01/08 06:41:53;;;;;;;76.70;36.07;;;;;;;1.54;80.18;95348.78;5032807;28;20997;-75
2023/01/08 06:44:18;;;;;;;89.37;43.23;;;;;;;1.61;80.35;95352.44;5013556;28;20180;-75
2023/01/08 06:46:44;;;;;;;98.67;44.50;;;;;;;1.65;80.10;95347.75;5012756;28;20294;-76
2023/01/08 06:49:09;;;;;;;122.80;55.80;;;;;;;1.78;81.09;95362.06;5012980;28;20799;-78
2023/01/08 06:51:35;;;;;;;137.50;65.53;;;;;;;1.83;82.07;95346.03;5009806;28;20184;-74
2023/01/08 06:54:01;;;;;;;144.53;62.10;;;;;;;1.98;83.51;95359.34;5012591;28;20255;-74
2023/01/08 06:56:26;;;;;;;106.70;54.37;;;;;;;2.15;83.19;95349.00;5012325;28;20180;-74
2023/01/08 06:58:52;;;;;;;118.47;54.23;;;;;;;2.32;82.75;95352.56;5025086;28;20168;-74
2023/01/08 07:01:17;;;;;;;112.13;52.00;;;;;;;2.45;82.15;95354.78;5031694;28;20234;-76
2023/01/08 07:03:43;;;;;;;103.03;50.30;;;;;;;2.63;81.30;95358.19;5013693;28;20658;-75
2023/01/08 07:06:14;;;;;;;115.03;51.87;;;;;;;2.75;80.63;95354.41;5010960;28;20184;-75
2023/01/08 07:08:40;;;;;;;113.83;56.70;;;;;;;2.82;79.65;95354.63;5007925;28;20200;-75
2023/01/08 07:11:05;;;;;;;124.23;55.40;;;;;;;2.88;80.62;95362.63;5011347;28;20176;-75
2023/01/08 07:13:30;;;;;;;116.17;56.83;;;;;;;2.96;80.56;95370.47;5014594;28;20211;-76
2023/01/08 07:15:56;;;;;;;120.97;54.83;;;;;;;3.06;80.42;95364.38;5011499;28;20655;-74
2023/01/08 07:18:21;;;;;;;115.03;54.73;;;;;;;3.15;79.81;95366.88;5011949;28;20180;-75
2023/01/08 07:20:48;;;;;;;104.60;51.47;;;;;;;3.27;80.29;95370.03;5011604;28;20180;-75
2023/01/08 07:23:13;;;;;;;95.77;47.47;;;;;;;3.36;79.67;95372.53;5011980;28;20671;-75
2023/01/08 07:25:39;;;;;;;74.40;38.20;;;;;;;3.50;80.09;95367.72;5016624;28;20179;-75
2023/01/08 07:28:05;;;;;;;67.17;33.33;;;;;;;3.63;79.84;95371.53;5015768;28;20203;-75
2023/01/08 07:30:30;;;;;;;60.43;30.37;;;;;;;3.55;79.75;95332.44;5024344;28;20183;-75
2023/01/08 07:32:59;;;;;;;59.57;29.20;;;;;;;4.03;79.13;95373.50;5030962;28;20198;-75
2023/01/08 07:35:25;;;;;;;50.43;25.57;;;;;;;4.19;78.27;95362.31;5017090;28;20512;-75
2023/01/08 07:37:50;;;;;;;46.90;23.43;;;;;;;4.33;77.55;95379.09;5027548;28;20178;-75
2023/01/08 07:40:15;;;;;;;46.17;26.17;;;;;;;4.41;77.40;95376.53;5012458;28;20625;-75
2023/01/08 07:42:41;;;;;;;51.37;24.77;;;;;;;4.52;77.14;95373.59;5025027;28;20185;-75
2023/01/08 07:45:07;;;;;;;46.83;25.03;;;;;;;4.65;76.69;95368.75;5028779;28;20175;-75
2023/01/08 07:47:32;;;;;;;49.70;21.90;;;;;;;4.85;76.67;95377.06;5009057;28;20176;-75
2023/01/08 07:49:58;;;;;;;48.10;20.33;;;;;;;4.99;75.24;95373.00;5008165;28;20250;-75
2023/01/08 07:52:23;;;;;;;39.37;20.40;;;;;;;5.02;75.31;95364.81;5008268;28;20655;-75
2023/01/08 07:54:49;;;;;;;42.53;20.87;;;;;;;5.23;74.27;95375.59;5004911;28;20646;-75
2023/01/08 07:57:14;;;;;;;37.03;19.27;;;;;;;5.20;72.79;95374.09;5007356;28;20185;-75
2023/01/08 07:59:39;;;;;;;38.40;19.70;;;;;;;5.08;72.57;95387.66;5002658;28;20259;-75
2023/01/08 08:02:05;;;;;;;39.97;21.07;;;;;;;5.02;72.96;95386.50;5003241;28;20211;-76
2023/01/08 08:04:31;;;;;;;38.77;20.03;;;;;;;5.01;73.65;95386.69;5006429;28;20183;-76
2023/01/08 08:06:56;;;;;;;35.87;20.77;;;;;;;5.05;74.92;95356.69;5004551;28;20217;-75
2023/01/08 08:09:22;;;;;;;44.77;19.97;;;;;;;5.36;74.46;95386.34;5007577;28;20234;-76
2023/01/08 08:11:47;;;;;;;39.10;20.17;;;;;;;5.40;73.15;95385.00;5002614;28;20757;-75
2023/01/08 08:14:12;;;;;;;39.77;20.43;;;;;;;5.45;73.30;95381.94;5007216;28;20202;-75
2023/01/08 08:16:38;;;;;;;36.60;20.27;;;;;;;5.53;73.21;95379.28;5005471;28;20663;-75
2023/01/08 08:19:03;;;;;;;43.27;22.77;;;;;;;5.69;73.17;95381.88;5007529;28;20175;-75
2023/01/08 08:21:29;;;;;;;40.30;19.60;;;;;;;5.81;72.49;95382.28;5004835;28;20609;-75
2023/01/08 08:23:55;;;;;;;39.10;21.43;;;;;;;5.95;72.14;95376.41;5010337;28;20176;-75
2023/01/08 08:26:20;;;;;;;40.70;22.30;;;;;;;6.03;71.62;95379.81;5002907;28;20187;-75
2023/01/08 08:28:46;;;;;;;41.33;22.00;;;;;;;6.35;71.82;95376.22;5007946;28;20189;-75
2023/01/08 08:31:11;;;;;;;38.40;21.33;;;;;;;6.79;68.58;95381.66;5011268;28;20184;-76
2023/01/08 08:33:37;;;;;;;42.93;22.73;;;;;;;7.09;67.20;95377.34;5005880;28;20176;-76
2023/01/08 08:36:03;;;;;;;41.77;20.67;;;;;;;7.51;67.80;95383.88;5006732;28;20176;-76
2023/01/08 08:38:28;;;;;;;54.83;21.50;;;;;;;7.82;66.31;95384.50;5007038;28;20179;-77
2023/01/08 08:40:54;;;;;;;44.93;21.30;;;;;;;8.24;64.60;95386.47;5012238;28;20211;-76
2023/01/08 08:43:19;;;;;;;43.03;21.40;;;;;;;8.70;61.66;95392.28;5009042;28;20635;-75
2023/01/08 08:45:45;;;;;;;38.60;21.87;;;;;;;8.89;60.55;95388.25;5007839;28;20195;-77
2023/01/08 08:48:10;;;;;;;34.73;18.93;;;;;;;8.90;58.50;95386.44;5011559;28;20283;-76
2023/01/08 08:50:38;;;;;;;42.03;18.90;;;;;;;8.92;57.44;95389.66;4999284;28;20188;-77
2023/01/08 08:53:05;;;;;;;33.43;18.23;;;;;;;8.99;57.77;95380.84;5004975;28;20321;-77
2023/01/08 08:55:31;;;;;;;37.47;19.37;;;;;;;9.18;57.98;95387.28;5006492;28;20262;-75
2023/01/08 08:58:11;;;;;;;40.80;19.83;;;;;;;9.41;56.44;95382.66;5002936;28;20176;-76
2023/01/08 09:00:41;;;;;;;37.10;21.10;;;;;;;9.54;54.60;95389.00;4996200;28;20367;-75
2023/01/08 09:03:11;;;;;;;35.97;20.03;;;;;;;9.46;54.89;95374.19;4997408;28;20691;-75
2023/01/08 09:05:36;;;;;;;41.47;20.83;;;;;;;9.45;54.11;95386.50;4998139;28;20189;-75
2023/01/08 09:08:02;;;;;;;39.57;20.60;;;;;;;9.46;56.40;95380.25;5002401;28;20238;-74
2023/01/08 09:10:27;;;;;;;33.57;20.00;;;;;;;9.75;55.64;95379.25;4996691;28;20248;-73
2023/01/08 09:12:53;;;;;;;39.77;19.57;;;;;;;10.20;54.12;95377.09;5002355;28;20283;-75
2023/01/08 09:15:19;;;;;;;46.53;20.03;;;;;;;10.44;52.75;95378.41;4999305;28;20184;-75
2023/01/08 09:17:44;;;;;;;35.37;20.70;;;;;;;10.61;51.36;95373.63;4999948;28;20192;-77
2023/01/08 09:20:10;;;;;;;34.13;18.90;;;;;;;10.38;50.35;95345.00;5001429;28;20185;-77
2023/01/08 09:22:36;;;;;;;33.07;18.60;;;;;;;10.51;50.96;95371.34;4998670;28;20242;-75
2023/01/08 09:25:02;;;;;;;33.10;18.90;;;;;;;10.41;50.99;95368.28;4999422;28;20629;-77
2023/01/08 09:27:27;;;;;;;39.20;19.20;;;;;;;10.16;51.53;95365.31;5002883;28;20600;-77
2023/01/08 09:29:53;;;;;;;30.97;17.07;;;;;;;10.18;51.75;95358.88;5003685;28;20303;-76
2023/01/08 09:32:18;;;;;;;35.87;18.47;;;;;;;10.45;52.29;95365.06;4998031;28;20267;-74
2023/01/08 09:34:44;;;;;;;33.73;18.57;;;;;;;10.67;50.55;95355.19;5003376;28;20208;-75
2023/01/08 09:37:09;;;;;;;35.17;17.83;;;;;;;10.67;50.02;95354.38;5003722;28;20176;-74
2023/01/08 09:39:35;;;;;;;37.23;19.20;;;;;;;10.67;49.87;95346.47;5007243;28;20172;-74
2023/01/08 09:42:04;;;;;;;37.83;18.27;;;;;;;10.49;50.30;95324.16;5000602;28;20188;-74
2023/01/08 09:44:39;;;;;;;41.33;20.53;;;;;;;10.81;50.92;95338.41;5006743;28;20188;-75
2023/01/08 09:47:13;;;;;;;35.97;19.23;;;;;;;10.94;50.92;95342.91;5006306;28;20188;-75
2023/01/08 09:49:43;;;;;;;35.20;19.63;;;;;;;10.65;49.78;95336.16;5009667;28;20690;-76
2023/01/08 09:52:12;;;;;;;38.30;19.53;;;;;;;10.46;50.91;95311.41;5012748;28;20250;-75
2023/01/08 09:54:39;;;;;;;35.27;21.23;;;;;;;10.47;51.28;95322.72;5008373;28;20184;-76
2023/01/08 09:57:05;;;;;;;40.87;19.80;;;;;;;10.20;52.36;95312.13;5004804;28;20194;-76
2023/01/08 09:59:31;;;;;;;35.17;18.90;;;;;;;10.20;53.26;95306.06;5008002;28;20184;-76
2023/01/08 10:01:57;;;;;;;40.40;20.13;;;;;;;10.38;52.61;95290.53;5006987;28;20180;-76
2023/01/08 10:04:27;;;;;;;34.10;20.20;;;;;;;10.56;50.72;95301.28;5006265;28;20212;-76
2023/01/08 10:07:16;;;;;;;36.40;19.83;;;;;;;10.61;50.69;95300.72;5006801;28;20699;-76
2023/01/08 10:09:42;;;;;;;37.97;19.43;;;;;;;10.52;51.03;95299.28;5008887;28;20208;-76
2023/01/08 10:12:11;;;;;;;31.47;19.30;;;;;;;10.16;51.97;95296.91;5006270;28;20337;-76
2023/01/08 10:14:39;;;;;;;39.33;20.43;;;;;;;9.96;53.61;95299.44;5003029;28;20590;-76
2023/01/08 10:17:16;;;;;;;44.57;19.90;;;;;;;10.15;53.13;95290.84;5007710;28;20639;-76
2023/01/08 10:19:44;;;;;;;40.93;20.23;;;;;;;10.40;52.50;95293.78;5006678;28;20720;-76
2023/01/08 10:22:17;;;;;;;31.50;18.93;;;;;;;10.39;52.52;95280.81;5004591;28;20208;-76
2023/01/08 10:24:42;;;;;;;35.60;19.13;;;;;;;10.48;52.24;95288.31;5004312;28;20604;-76
2023/01/08 10:27:13;;;;;;;35.17;19.07;;;;;;;10.49;51.72;95289.13;5005484;28;20196;-76
2023/01/08 10:29:39;;;;;;;34.17;19.10;;;;;;;10.38;51.82;95256.31;5004211;28;20227;-76
2023/01/08 10:32:17;;;;;;;38.43;19.87;;;;;;;10.38;51.35;95274.72;5007338;28;20211;-77
2023/01/08 10:34:50;;;;;;;33.73;19.23;;;;;;;10.12;51.75;95250.94;5004166;28;20180;-77
2023/01/08 10:37:22;;;;;;;36.70;19.57;;;;;;;10.15;53.21;95264.53;5003489;28;20593;-76
2023/01/08 10:39:48;;;;;;;40.43;20.70;;;;;;;10.13;52.06;95255.19;5003356;28;20516;-76
2023/01/08 10:42:16;;;;;;;35.40;19.17;;;;;;;9.77;52.45;95214.22;5002058;28;20192;-75
2023/01/08 10:45:10;;;;;;;36.00;18.63;;;;;;;9.90;52.57;95236.31;5005810;28;20688;-77
2023/01/08 10:47:37;;;;;;;33.20;19.30;;;;;;;9.77;53.52;95251.03;5005490;28;20188;-76
2023/01/08 10:50:12;;;;;;;35.00;19.80;;;;;;;9.71;54.66;95241.31;5002576;28;21012;-76
2023/01/08 10:52:37;;;;;;;41.97;20.90;;;;;;;9.87;54.89;95239.31;5008536;28;20183;-76
2023/01/08 10:55:25;;;;;;;35.70;20.63;;;;;;;9.76;54.53;95199.47;5014215;28;20188;-76
2023/01/08 10:57:59;;;;;;;42.50;20.20;;;;;;;9.99;53.54;95230.69;5006927;28;20176;-77
2023/01/08 11:00:31;;;;;;;35.93;20.43;;;;;;;9.91;53.67;95233.50;4999916;28;20220;-76
2023/01/08 11:03:17;;;;;;;42.17;21.03;;;;;;;9.86;55.52;95230.63;5006276;28;20184;-76
2023/01/08 11:05:43;;;;;;;37.00;19.13;;;;;;;9.72;54.39;95214.00;5005878;28;20712;-76
2023/01/08 11:08:17;;;;;;;36.77;20.03;;;;;;;9.73;54.46;95222.72;4998589;28;20212;-76
2023/01/08 11:10:52;;;;;;;36.70;20.80;;;;;;;9.70;55.95;95220.47;4999802;28;20192;-76
2023/01/08 11:13:18;;;;;;;36.70;20.67;;;;;;;9.78;55.64;95218.47;5002965;28;20188;-76
2023/01/08 11:15:45;;;;;;;38.90;20.17;;;;;;;9.79;54.96;95221.91;5002733;28;20185;-75
2023/01/08 11:18:20;;;;;;;40.63;20.60;;;;;;;9.82;54.63;95224.16;5008878;28;20275;-76
2023/01/08 11:20:47;;;;;;;35.33;19.47;;;;;;;9.78;54.63;95213.22;5003879;28;20184;-76
2023/01/08 11:23:23;;;;;;;46.83;24.23;;;;;;;9.74;56.17;95213.81;5004977;28;20729;-76
2023/01/08 11:26:10;;;;;;;41.30;22.23;;;;;;;9.75;56.50;95208.38;5002795;28;20216;-77